Terminal Aerodrome Forecast
Issued by NWS Cleveland, OH

Home | Current Version | Previous Version | Graphics & Text | Print | Product List | Glossary On
Versions: 1 2 3 4 5 6 7 8 9 10 11 12 13 14 15 16 17
000
FTUS41 KCLE 191100
TAFCAK
TAF
KCAK 191120Z 1912/2012 30005KT P6SM OVC040
     FM191600 30006KT P6SM BKN040
      TEMPO 1916/1918 SCT040
     FM191800 27008KT P6SM BKN250
     FM200200 22005KT P6SM BKN250
     FM200800 22007KT P6SM SCT120 OVC250=

USA.gov is the U.S. government's official web portal to all federal, state and local government web resources and services.